Time;durP1;ratioP1;P1;durP2;ratioP2;P2;SDS_P1;SDS_P2;PMS_P1;PMS_P2;Temp;Humidity;BMP_temperature;BMP_pressure;BME280_temperature;BME280_humidity;BME280_pressure;Samples;Min_cycle;Max_cycle;Signal;HPM_P1;HPM_P2
2021/12/31 00:00:17;;;;;;;4.80;4.10;;;13.30;99.90;;;;;;5072923;27;20547;-48
2021/12/31 00:02:44;;;;;;;7.60;5.00;;;13.30;99.90;;;;;;5065362;27;21240;-48
2021/12/31 00:05:11;;;;;;;7.37;4.03;;;13.30;99.90;;;;;;5069306;28;20492;-47
2021/12/31 00:07:38;;;;;;;5.03;3.20;;;13.20;99.90;;;;;;5065947;28;20487;-47
2021/12/31 00:10:06;;;;;;;5.83;3.90;;;13.20;99.90;;;;;;5066517;28;21297;-48
2021/12/31 00:12:34;;;;;;;4.90;4.20;;;13.20;99.90;;;;;;5066980;28;20482;-48
2021/12/31 00:15:01;;;;;;;8.07;4.77;;;13.20;99.90;;;;;;5065862;28;20928;-49
2021/12/31 00:17:29;;;;;;;4.27;3.87;;;13.10;99.90;;;;;;5066121;27;21129;-49
2021/12/31 00:20:02;;;;;;;8.13;3.83;;;13.10;99.90;;;;;;5085357;27;20613;-48
2021/12/31 00:22:52;;;;;;;8.77;4.40;;;13.20;99.90;;;;;;5078753;27;21416;-47
2021/12/31 00:25:19;;;;;;;8.50;4.17;;;13.20;99.90;;;;;;5065133;28;21685;-48
2021/12/31 00:27:47;;;;;;;6.87;4.03;;;13.30;99.90;;;;;;5065451;28;20487;-48
2021/12/31 00:30:14;;;;;;;7.27;3.97;;;13.30;99.90;;;;;;5067744;28;20533;-48
2021/12/31 00:32:42;;;;;;;6.70;3.20;;;13.30;99.90;;;;;;5065574;28;20544;-48
2021/12/31 00:35:09;;;;;;;4.93;4.07;;;13.40;99.90;;;;;;5065942;28;20484;-48
2021/12/31 00:37:38;;;;;;;9.63;4.23;;;13.40;99.90;;;;;;5063573;28;20472;-48
2021/12/31 00:40:08;;;;;;;5.80;3.83;;;13.40;99.90;;;;;;5080480;27;20508;-49
2021/12/31 00:42:35;;;;;;;9.47;3.67;;;13.40;99.90;;;;;;5074422;27;20483;-48
2021/12/31 00:45:02;;;;;;;8.73;3.90;;;13.40;99.90;;;;;;5037891;28;20929;-48
2021/12/31 00:47:29;;;;;;;5.43;3.70;;;13.40;99.90;;;;;;5067377;28;20481;-48
2021/12/31 00:49:57;;;;;;;11.30;4.93;;;13.30;99.90;;;;;;5063757;28;20479;-48
2021/12/31 00:52:23;;;;;;;5.63;3.90;;;13.30;99.90;;;;;;5062347;28;20484;-48
2021/12/31 00:54:50;;;;;;;7.17;4.00;;;13.30;99.90;;;;;;5075069;27;20462;-48
2021/12/31 00:57:16;;;;;;;7.17;4.80;;;13.40;99.90;;;;;;5070794;27;20577;-48
2021/12/31 00:59:43;;;;;;;6.17;4.27;;;13.40;99.90;;;;;;5068442;28;20504;-53
2021/12/31 01:02:12;;;;;;;6.10;4.60;;;13.40;99.90;;;;;;5067635;28;20502;-48
2021/12/31 01:04:39;;;;;;;11.57;4.83;;;13.30;99.90;;;;;;5061668;28;20532;-48
2021/12/31 01:07:08;;;;;;;5.60;4.17;;;13.30;99.90;;;;;;5074539;28;20483;-48
2021/12/31 01:09:36;;;;;;;5.57;4.00;;;13.30;99.90;;;;;;5075629;28;20484;-47
2021/12/31 01:12:06;;;;;;;6.93;3.10;;;13.30;99.90;;;;;;5067211;27;20491;-47
2021/12/31 01:14:36;;;;;;;5.20;3.33;;;13.40;99.90;;;;;;5068258;28;21043;-48
2021/12/31 01:17:07;;;;;;;8.93;3.90;;;13.30;99.90;;;;;;5058055;28;20481;-47
2021/12/31 01:19:48;;;;;;;4.43;3.40;;;13.30;99.90;;;;;;5060177;28;20468;-47
2021/12/31 01:22:18;;;;;;;9.33;4.53;;;13.30;99.90;;;;;;5063092;28;21066;-48
2021/12/31 01:24:45;;;;;;;8.80;4.30;;;13.20;99.90;;;;;;5066452;28;20505;-48
2021/12/31 01:27:13;;;;;;;9.10;3.77;;;13.20;99.90;;;;;;5063255;28;20535;-47
2021/12/31 01:29:40;;;;;;;5.33;3.73;;;13.30;99.90;;;;;;5070038;28;20807;-48
2021/12/31 01:32:07;;;;;;;7.80;3.97;;;13.30;99.90;;;;;;5064568;28;20711;-48
2021/12/31 01:34:34;;;;;;;6.87;4.53;;;13.40;99.90;;;;;;5072876;28;20506;-48
2021/12/31 01:37:01;;;;;;;4.63;3.00;;;13.40;99.90;;;;;;5069649;28;20486;-48
2021/12/31 01:39:30;;;;;;;4.70;3.50;;;13.40;99.90;;;;;;5066583;28;20487;-48
2021/12/31 01:41:58;;;;;;;6.80;4.10;;;13.20;99.90;;;;;;5066822;28;20490;-48
2021/12/31 01:44:33;;;;;;;6.20;3.70;;;13.20;99.90;;;;;;5066100;28;20511;-48
2021/12/31 01:47:04;;;;;;;9.10;4.57;;;13.10;99.90;;;;;;5061818;27;20474;-48
2021/12/31 01:49:36;;;;;;;4.57;3.30;;;13.00;99.90;;;;;;5081336;27;20958;-48
2021/12/31 01:52:04;;;;;;;4.90;3.30;;;13.10;99.90;;;;;;5065615;28;20479;-48
2021/12/31 01:54:34;;;;;;;6.30;3.63;;;13.00;99.90;;;;;;5078824;28;20480;-48
2021/12/31 01:57:02;;;;;;;4.80;4.23;;;12.90;99.90;;;;;;5064727;27;20479;-47
2021/12/31 01:59:29;;;;;;;6.67;4.33;;;12.80;99.90;;;;;;5070102;27;21169;-47
2021/12/31 02:01:57;;;;;;;13.60;5.00;;;12.80;99.90;;;;;;5093816;27;20541;-47
2021/12/31 02:04:24;;;;;;;6.87;4.70;;;12.60;99.90;;;;;;5065734;28;20864;-47
2021/12/31 02:06:50;;;;;;;6.10;5.03;;;12.60;99.90;;;;;;5069757;28;20897;-48
2021/12/31 02:09:17;;;;;;;9.63;7.37;;;12.50;99.90;;;;;;5069929;28;20485;-47
2021/12/31 02:11:45;;;;;;;11.10;5.17;;;12.40;99.90;;;;;;5070381;28;21264;-48
2021/12/31 02:14:12;;;;;;;6.17;5.23;;;12.50;99.90;;;;;;5091357;27;20526;-48
2021/12/31 02:16:38;;;;;;;10.67;5.17;;;12.40;99.90;;;;;;5069392;28;20478;-48
2021/12/31 02:19:12;;;;;;;6.07;4.83;;;12.40;99.90;;;;;;5087375;27;21022;-48
2021/12/31 02:21:43;;;;;;;8.40;5.10;;;12.40;99.90;;;;;;5068075;28;20846;-48
2021/12/31 02:24:10;;;;;;;8.93;6.53;;;12.40;99.90;;;;;;5054874;28;20522;-48
2021/12/31 02:26:37;;;;;;;6.87;6.17;;;12.30;99.90;;;;;;5067824;28;20478;-47
2021/12/31 02:29:04;;;;;;;10.83;5.70;;;12.20;99.90;;;;;;5087669;27;20473;-48
2021/12/31 02:31:31;;;;;;;12.07;5.67;;;12.20;99.90;;;;;;5072427;27;20546;-48
2021/12/31 02:33:58;;;;;;;10.30;5.90;;;12.20;99.90;;;;;;5064648;28;20823;-48
2021/12/31 02:36:24;;;;;;;7.57;5.40;;;12.20;99.90;;;;;;5066379;28;20479;-48
2021/12/31 02:38:53;;;;;;;17.10;7.03;;;12.10;99.90;;;;;;5072258;28;20483;-48
2021/12/31 02:41:19;;;;;;;13.37;7.17;;;12.10;99.90;;;;;;5082263;27;20571;-47
2021/12/31 02:43:46;;;;;;;7.83;5.60;;;12.10;99.90;;;;;;5073840;28;20739;-48
2021/12/31 02:46:13;;;;;;;8.00;5.50;;;12.10;99.90;;;;;;5068834;28;20537;-47
2021/12/31 02:48:40;;;;;;;13.03;5.43;;;12.10;99.90;;;;;;5065451;28;20945;-48
2021/12/31 02:51:07;;;;;;;6.17;5.20;;;12.10;99.90;;;;;;5089143;27;20499;-48
2021/12/31 02:53:40;;;;;;;6.10;5.40;;;12.10;99.90;;;;;;5066821;28;20479;-48
2021/12/31 02:56:10;;;;;;;9.63;5.13;;;12.10;99.90;;;;;;5068474;28;20987;-47
2021/12/31 02:58:38;;;;;;;9.03;6.40;;;12.00;99.90;;;;;;5055746;28;20502;-48
2021/12/31 03:01:07;;;;;;;8.70;5.50;;;12.00;99.90;;;;;;5079287;28;20477;-48
2021/12/31 03:03:35;;;;;;;5.73;5.13;;;12.10;99.90;;;;;;5057029;27;20520;-48
2021/12/31 03:06:03;;;;;;;8.10;5.90;;;12.00;99.90;;;;;;5095312;27;20507;-47
2021/12/31 03:08:32;;;;;;;7.30;6.23;;;11.90;99.90;;;;;;5073596;28;20890;-48
2021/12/31 03:11:01;;;;;;;11.43;5.47;;;11.80;99.90;;;;;;5055539;28;20541;-47
2021/12/31 03:13:30;;;;;;;5.23;4.73;;;11.80;99.90;;;;;;5055002;28;21022;-48
2021/12/31 03:15:58;;;;;;;9.30;5.80;;;11.70;99.90;;;;;;5063968;28;21166;-47
2021/12/31 03:18:26;;;;;;;5.97;5.37;;;11.70;99.90;;;;;;5086565;27;20473;-47
2021/12/31 03:21:01;;;;;;;8.50;6.60;;;11.80;99.90;;;;;;5069994;27;20506;-47
2021/12/31 03:23:29;;;;;;;11.97;6.03;;;11.80;99.90;;;;;;5068492;28;20572;-47
2021/12/31 03:25:56;;;;;;;8.40;5.50;;;11.80;99.90;;;;;;5059505;28;20603;-47
2021/12/31 03:28:23;;;;;;;8.53;5.90;;;11.70;99.90;;;;;;5066840;28;20807;-47
2021/12/31 03:30:51;;;;;;;10.70;6.87;;;11.70;99.90;;;;;;5061644;28;20532;-48
2021/12/31 03:33:18;;;;;;;13.50;7.23;;;11.60;99.90;;;;;;5065008;27;20779;-47
2021/12/31 03:35:45;;;;;;;15.17;6.70;;;11.50;99.90;;;;;;5088023;27;20539;-47
2021/12/31 03:38:13;;;;;;;12.00;7.30;;;11.40;99.90;;;;;;5061633;28;20481;-47
2021/12/31 03:40:40;;;;;;;7.73;6.20;;;11.40;99.90;;;;;;5064287;28;20563;-48
2021/12/31 03:43:08;;;;;;;9.40;5.73;;;11.50;99.90;;;;;;5061818;28;20477;-47
2021/12/31 03:45:35;;;;;;;12.53;6.47;;;11.50;99.90;;;;;;5087247;27;20554;-47
2021/12/31 03:48:03;;;;;;;9.80;5.50;;;11.60;99.90;;;;;;5049803;27;20494;-47
2021/12/31 03:50:29;;;;;;;8.07;6.90;;;11.60;99.90;;;;;;5060663;27;20478;-47
2021/12/31 03:52:56;;;;;;;7.80;6.07;;;11.60;99.90;;;;;;5066755;28;20481;-48
2021/12/31 03:55:23;;;;;;;9.30;6.80;;;11.60;99.90;;;;;;5068456;28;20833;-48
2021/12/31 03:57:50;;;;;;;7.50;4.90;;;11.60;99.90;;;;;;5067724;27;20479;-48
2021/12/31 04:00:17;;;;;;;7.50;5.23;;;11.60;99.90;;;;;;5084012;27;21021;-48
2021/12/31 04:02:44;;;;;;;10.23;5.37;;;11.70;99.90;;;;;;5090016;27;20974;-48
2021/12/31 04:05:12;;;;;;;14.93;5.50;;;11.70;99.90;;;;;;5065571;27;20481;-47
2021/12/31 04:07:38;;;;;;;9.00;6.27;;;11.70;99.90;;;;;;5062128;27;20480;-48
2021/12/31 04:10:06;;;;;;;9.73;5.60;;;11.70;99.90;;;;;;5080302;27;20481;-47
2021/12/31 04:12:33;;;;;;;12.47;6.70;;;11.80;99.90;;;;;;5050406;28;20497;-48
2021/12/31 04:14:59;;;;;;;8.77;5.80;;;11.70;99.90;;;;;;5081056;27;20476;-48
2021/12/31 04:17:26;;;;;;;10.00;6.50;;;11.60;99.90;;;;;;5080939;27;20480;-48
2021/12/31 04:19:56;;;;;;;14.23;6.23;;;11.70;99.90;;;;;;5072209;27;20884;-48
2021/12/31 04:22:25;;;;;;;8.13;5.93;;;11.60;99.90;;;;;;5067002;28;20490;-48
2021/12/31 04:24:53;;;;;;;10.00;6.30;;;11.60;99.90;;;;;;5069958;28;20485;-47
2021/12/31 04:27:21;;;;;;;8.70;6.53;;;11.50;99.90;;;;;;5059990;28;20560;-47
2021/12/31 04:29:53;;;;;;;14.63;5.47;;;11.40;99.90;;;;;;5067170;28;20976;-47
2021/12/31 04:32:24;;;;;;;11.10;6.60;;;11.40;99.90;;;;;;5079573;27;20596;-47
2021/12/31 04:34:50;;;;;;;12.37;5.83;;;11.50;99.90;;;;;;5075357;27;20506;-47
2021/12/31 04:37:17;;;;;;;9.37;6.13;;;11.50;99.90;;;;;;5061097;28;20497;-47
2021/12/31 04:39:45;;;;;;;9.40;6.07;;;11.40;99.90;;;;;;5065700;28;20477;-47
2021/12/31 04:42:12;;;;;;;13.20;6.63;;;11.50;99.90;;;;;;5068743;28;20483;-48
2021/12/31 04:44:39;;;;;;;10.23;5.40;;;11.50;99.90;;;;;;5067519;28;20488;-47
2021/12/31 04:47:05;;;;;;;12.33;6.73;;;11.60;99.90;;;;;;5068356;28;21607;-48
2021/12/31 04:49:32;;;;;;;8.27;6.60;;;11.50;99.90;;;;;;5057629;28;20484;-52
2021/12/31 04:51:59;;;;;;;13.40;7.00;;;11.40;99.90;;;;;;5079605;28;20832;-47
2021/12/31 04:54:26;;;;;;;8.17;6.60;;;11.40;99.90;;;;;;5080683;27;21030;-47
2021/12/31 04:56:56;;;;;;;9.33;6.70;;;11.40;99.90;;;;;;5081424;28;20472;-48
2021/12/31 04:59:22;;;;;;;13.67;7.10;;;11.40;99.90;;;;;;5067277;28;20485;-47
2021/12/31 05:01:49;;;;;;;8.00;6.13;;;11.30;99.90;;;;;;5065805;28;21046;-47
2021/12/31 05:04:16;;;;;;;11.80;6.80;;;11.30;99.90;;;;;;5060933;28;20485;-47
2021/12/31 05:06:43;;;;;;;11.37;7.20;;;11.30;99.90;;;;;;5066799;28;20492;-47
2021/12/31 05:09:10;;;;;;;8.67;6.30;;;11.30;99.90;;;;;;5068255;28;20944;-47
2021/12/31 05:11:37;;;;;;;9.83;8.20;;;11.30;99.90;;;;;;5056622;28;20480;-47
2021/12/31 05:14:05;;;;;;;16.23;7.50;;;11.20;99.90;;;;;;5068766;28;20551;-47
2021/12/31 05:16:35;;;;;;;13.90;8.20;;;11.10;99.90;;;;;;5064984;28;21220;-47
2021/12/31 05:19:03;;;;;;;9.90;8.10;;;10.90;99.90;;;;;;5068775;28;21042;-47
2021/12/31 05:21:30;;;;;;;9.87;6.97;;;10.90;99.90;;;;;;5066058;28;20488;-47
2021/12/31 05:23:57;;;;;;;23.03;7.70;;;10.80;99.90;;;;;;5067945;28;20505;-47
2021/12/31 05:26:23;;;;;;;8.83;7.40;;;10.80;99.90;;;;;;5066641;28;20987;-47
2021/12/31 05:28:50;;;;;;;11.20;7.90;;;10.80;99.90;;;;;;5071618;28;20870;-48
2021/12/31 05:31:18;;;;;;;15.13;7.60;;;10.80;99.90;;;;;;5090615;27;20871;-48
2021/12/31 05:33:45;;;;;;;16.23;8.10;;;10.60;99.90;;;;;;5065861;28;20507;-47
2021/12/31 05:36:11;;;;;;;12.03;7.30;;;10.40;99.90;;;;;;5071795;28;20980;-47
2021/12/31 05:38:38;;;;;;;12.40;7.20;;;10.20;99.90;;;;;;5071455;28;20481;-47
2021/12/31 05:41:05;;;;;;;12.83;7.67;;;10.20;99.90;;;;;;5051628;27;20490;-47
2021/12/31 05:43:32;;;;;;;27.50;8.00;;;10.20;99.90;;;;;;5096022;27;20802;-47
2021/12/31 05:45:58;;;;;;;87.37;11.07;;;10.20;99.90;;;;;;5069141;28;20556;-47
2021/12/31 05:48:26;;;;;;;12.63;7.43;;;10.20;99.90;;;;;;5071094;28;20489;-47
2021/12/31 05:50:53;;;;;;;10.80;7.30;;;10.10;99.90;;;;;;5058151;28;20717;-47
2021/12/31 05:53:20;;;;;;;11.27;7.10;;;10.00;99.90;;;;;;5070314;28;20482;-47
2021/12/31 05:55:46;;;;;;;8.50;7.00;;;9.90;99.90;;;;;;5068286;27;20478;-47
2021/12/31 05:58:13;;;;;;;10.20;7.20;;;9.80;99.90;;;;;;5097827;27;20510;-47
2021/12/31 06:00:41;;;;;;;11.17;6.83;;;9.80;99.90;;;;;;5061964;27;20534;-47
2021/12/31 06:03:07;;;;;;;11.47;7.30;;;9.70;99.90;;;;;;5097829;27;20536;-47
2021/12/31 06:05:36;;;;;;;15.13;8.30;;;9.70;99.90;;;;;;5060704;28;20476;-47
2021/12/31 06:08:03;;;;;;;13.50;8.00;;;9.60;99.90;;;;;;5100999;27;20479;-47
2021/12/31 06:10:31;;;;;;;19.77;8.70;;;9.50;99.90;;;;;;5069807;28;20569;-47
2021/12/31 06:13:00;;;;;;;18.63;8.80;;;9.40;99.90;;;;;;5092495;27;21010;-48
2021/12/31 06:15:28;;;;;;;16.47;7.50;;;9.40;99.90;;;;;;5071105;28;20473;-47
2021/12/31 06:17:54;;;;;;;63.63;11.30;;;9.50;99.90;;;;;;5066948;28;20481;-47
2021/12/31 06:20:21;;;;;;;12.90;7.53;;;9.50;99.90;;;;;;5069648;28;20863;-48
2021/12/31 06:22:49;;;;;;;26.50;8.27;;;9.40;99.90;;;;;;5055119;28;20481;-47
2021/12/31 06:25:16;;;;;;;43.00;8.33;;;9.30;99.90;;;;;;5082621;28;20485;-47
2021/12/31 06:27:42;;;;;;;254.10;21.00;;;9.10;99.90;;;;;;5068716;28;20487;-47
2021/12/31 06:30:10;;;;;;;133.23;13.03;;;9.00;99.90;;;;;;5074007;28;20485;-47
2021/12/31 06:32:37;;;;;;;125.53;12.90;;;8.90;99.90;;;;;;5071503;28;20485;-47
2021/12/31 06:35:04;;;;;;;133.60;13.57;;;8.90;99.90;;;;;;5068411;28;20476;-47
2021/12/31 06:37:31;;;;;;;174.80;14.13;;;8.80;99.90;;;;;;5070332;28;20892;-47
2021/12/31 06:40:03;;;;;;;166.73;13.70;;;8.70;99.90;;;;;;5089404;27;20737;-47
2021/12/31 06:42:29;;;;;;;40.20;8.00;;;8.70;99.90;;;;;;5066517;28;20986;-47
2021/12/31 06:44:56;;;;;;;50.80;7.57;;;8.70;99.90;;;;;;5068251;28;20473;-47
2021/12/31 06:47:23;;;;;;;53.23;7.80;;;8.70;99.90;;;;;;5065109;28;20507;-47
2021/12/31 06:49:49;;;;;;;50.83;7.73;;;8.60;99.90;;;;;;5073524;28;20481;-47
2021/12/31 06:52:16;;;;;;;45.97;6.80;;;8.50;99.90;;;;;;5084320;27;20509;-47
2021/12/31 06:54:43;;;;;;;104.03;9.70;;;8.30;99.90;;;;;;5071192;27;20505;-47
2021/12/31 06:57:11;;;;;;;186.23;17.60;;;8.20;99.90;;;;;;5065235;28;20479;-47
2021/12/31 06:59:37;;;;;;;163.93;15.77;;;8.10;99.90;;;;;;5088354;27;20490;-47
2021/12/31 07:02:04;;;;;;;135.13;14.00;;;8.00;99.90;;;;;;5070021;27;20480;-47
2021/12/31 07:04:31;;;;;;;140.27;12.30;;;8.00;99.90;;;;;;5070232;28;20490;-47
2021/12/31 07:06:57;;;;;;;91.33;10.90;;;8.10;99.90;;;;;;5056132;28;20566;-47
2021/12/31 07:09:24;;;;;;;119.77;13.00;;;8.10;99.90;;;;;;5085783;28;20690;-48
2021/12/31 07:11:51;;;;;;;233.03;17.70;;;8.00;99.90;;;;;;5062211;28;20482;-47
2021/12/31 07:14:19;;;;;;;32.87;6.30;;;8.10;99.90;;;;;;5066814;27;20555;-48
2021/12/31 07:16:45;;;;;;;40.97;6.30;;;8.20;99.90;;;;;;5089684;27;20471;-47
2021/12/31 07:19:12;;;;;;;91.77;9.43;;;8.30;99.90;;;;;;5056276;28;20519;-47
2021/12/31 07:21:39;;;;;;;68.47;8.03;;;8.10;99.90;;;;;;5067296;28;20468;-47
2021/12/31 07:24:06;;;;;;;103.80;10.87;;;7.90;99.90;;;;;;5061877;28;20907;-47
2021/12/31 07:26:33;;;;;;;40.77;6.30;;;7.80;99.90;;;;;;5062464;28;20841;-49
2021/12/31 07:28:59;;;;;;;57.27;6.70;;;7.80;99.90;;;;;;5072861;27;20489;-47
2021/12/31 07:31:27;;;;;;;78.00;7.43;;;7.80;99.90;;;;;;5061905;28;21028;-47
2021/12/31 07:33:54;;;;;;;83.13;8.50;;;7.80;99.90;;;;;;5067711;28;20492;-47
2021/12/31 07:36:21;;;;;;;32.13;5.70;;;7.80;99.90;;;;;;5061084;27;20481;-47
2021/12/31 07:38:55;;;;;;;19.60;5.87;;;7.80;99.90;;;;;;5069156;28;20483;-47
2021/12/31 07:41:22;;;;;;;37.83;5.80;;;7.70;99.90;;;;;;5067356;28;20483;-47
2021/12/31 07:43:48;;;;;;;89.47;10.63;;;7.70;99.90;;;;;;5071651;28;20474;-47
2021/12/31 07:46:15;;;;;;;61.90;8.33;;;7.50;99.90;;;;;;5066385;28;21056;-47
2021/12/31 07:48:43;;;;;;;55.20;8.47;;;7.50;99.90;;;;;;5069719;28;20474;-47
2021/12/31 07:51:10;;;;;;;87.90;9.97;;;7.50;99.90;;;;;;5074680;27;20894;-48
2021/12/31 07:53:37;;;;;;;112.90;10.37;;;7.60;99.90;;;;;;5083909;27;20501;-47
2021/12/31 07:56:04;;;;;;;66.43;6.63;;;7.60;99.90;;;;;;5068369;28;20529;-47
2021/12/31 07:58:31;;;;;;;110.97;10.20;;;7.70;99.90;;;;;;5083923;27;20473;-47
2021/12/31 08:00:58;;;;;;;81.53;10.07;;;7.90;99.90;;;;;;5084378;27;20477;-47
2021/12/31 08:03:24;;;;;;;125.23;11.47;;;7.90;99.90;;;;;;5070628;28;20793;-47
2021/12/31 08:05:52;;;;;;;155.70;14.57;;;7.80;99.90;;;;;;5069206;27;20490;-47
2021/12/31 08:08:20;;;;;;;28.73;6.27;;;7.70;99.90;;;;;;5085426;27;20528;-47
2021/12/31 08:10:47;;;;;;;58.40;9.30;;;7.60;99.90;;;;;;5055070;28;21358;-47
2021/12/31 08:13:14;;;;;;;40.70;5.70;;;7.60;99.90;;;;;;5092689;27;21083;-47
2021/12/31 08:15:41;;;;;;;50.70;6.33;;;7.70;99.90;;;;;;5061350;28;20612;-47
2021/12/31 08:18:07;;;;;;;29.00;6.10;;;7.90;99.90;;;;;;5064280;27;20884;-47
2021/12/31 08:20:35;;;;;;;28.80;5.33;;;8.00;99.90;;;;;;5075826;27;20479;-47
2021/12/31 08:23:09;;;;;;;35.27;5.73;;;8.10;99.90;;;;;;5060508;28;20478;-47
2021/12/31 08:25:36;;;;;;;29.00;4.90;;;8.20;99.90;;;;;;5069906;28;20474;-47
2021/12/31 08:28:02;;;;;;;31.10;5.60;;;8.30;99.90;;;;;;5057937;28;20472;-47
2021/12/31 08:30:29;;;;;;;29.90;5.40;;;8.60;99.90;;;;;;5059294;28;20542;-47
2021/12/31 08:32:56;;;;;;;28.67;5.27;;;9.00;99.90;;;;;;5060005;28;21046;-47
2021/12/31 08:35:24;;;;;;;21.77;5.13;;;9.60;99.90;;;;;;5088170;27;20585;-47
2021/12/31 08:37:51;;;;;;;8.97;7.60;;;10.10;99.90;;;;;;5060688;28;20487;-47
2021/12/31 08:40:20;;;;;;;8.60;6.20;;;10.80;99.90;;;;;;5059008;28;21059;-48
2021/12/31 08:42:47;;;;;;;10.67;7.37;;;11.70;99.90;;;;;;5083894;27;20470;-47
2021/12/31 08:45:14;;;;;;;7.30;5.80;;;12.60;99.90;;;;;;5065812;27;20544;-47
2021/12/31 08:47:41;;;;;;;6.13;5.07;;;13.40;99.40;;;;;;5077146;27;20911;-48
2021/12/31 08:50:08;;;;;;;5.03;4.53;;;13.70;97.60;;;;;;5061234;27;20473;-48
2021/12/31 08:52:35;;;;;;;3.40;3.10;;;13.90;97.40;;;;;;5058681;28;20485;-48
2021/12/31 08:55:01;;;;;;;4.40;2.87;;;14.20;98.10;;;;;;5057811;28;20541;-47
2021/12/31 08:57:30;;;;;;;5.37;4.97;;;15.00;99.00;;;;;;5073953;27;20538;-48
2021/12/31 08:59:56;;;;;;;6.83;6.23;;;15.60;97.90;;;;;;5058418;27;20550;-47
2021/12/31 09:02:23;;;;;;;5.33;4.80;;;15.90;96.80;;;;;;5082549;27;20560;-47
2021/12/31 09:04:50;;;;;;;5.13;4.63;;;16.00;96.40;;;;;;5053709;28;20487;-48
2021/12/31 09:07:16;;;;;;;5.50;5.00;;;16.00;96.10;;;;;;5063369;28;20482;-48
2021/12/31 09:09:43;;;;;;;7.17;5.93;;;15.50;95.80;;;;;;5057178;28;20493;-48
2021/12/31 09:12:10;;;;;;;6.10;5.07;;;15.20;96.60;;;;;;5060633;28;20529;-48
2021/12/31 09:14:38;;;;;;;39.40;24.97;;;15.20;97.40;;;;;;5047234;28;20475;-48
2021/12/31 09:17:05;;;;;;;8.53;7.77;;;15.50;97.90;;;;;;5085874;27;20480;-48
2021/12/31 09:19:32;;;;;;;7.00;5.70;;;15.70;98.00;;;;;;5060670;28;20538;-48
2021/12/31 09:21:59;;;;;;;11.27;6.00;;;15.90;97.90;;;;;;5059578;28;20488;-48
2021/12/31 09:24:25;;;;;;;7.20;5.53;;;16.00;97.50;;;;;;5061300;28;20750;-48
2021/12/31 09:26:52;;;;;;;8.30;5.27;;;15.90;96.80;;;;;;5053795;28;20606;-48
2021/12/31 09:29:21;;;;;;;10.73;7.37;;;15.90;98.30;;;;;;5052479;28;20538;-49
2021/12/31 09:31:49;;;;;;;27.70;16.07;;;15.90;98.60;;;;;;5093299;27;20481;-47
2021/12/31 09:34:16;;;;;;;6.27;5.77;;;16.00;98.90;;;;;;5056622;28;20482;-48
2021/12/31 09:36:43;;;;;;;8.17;6.60;;;16.00;98.40;;;;;;5058478;28;20543;-48
2021/12/31 09:39:10;;;;;;;6.13;5.53;;;16.10;98.50;;;;;;5061061;28;20485;-48
2021/12/31 09:41:37;;;;;;;7.17;5.27;;;16.20;98.60;;;;;;5065916;28;20502;-48
2021/12/31 09:44:04;;;;;;;5.40;4.93;;;16.20;98.70;;;;;;5062583;28;20549;-48
2021/12/31 09:46:31;;;;;;;6.13;4.67;;;16.30;98.80;;;;;;5063489;28;20917;-48
2021/12/31 09:48:59;;;;;;;5.73;5.17;;;16.30;99.30;;;;;;5073022;27;20472;-48
2021/12/31 09:51:26;;;;;;;5.17;4.67;;;16.40;99.40;;;;;;5085492;27;20918;-47
2021/12/31 09:53:58;;;;;;;3.87;3.50;;;16.50;99.30;;;;;;5066598;28;20951;-47
2021/12/31 09:56:25;;;;;;;3.57;3.27;;;16.60;98.30;;;;;;5056986;28;20503;-47
2021/12/31 09:58:52;;;;;;;3.80;3.20;;;16.70;98.60;;;;;;5065627;28;20530;-48
2021/12/31 10:01:18;;;;;;;3.50;3.10;;;16.70;98.40;;;;;;5063492;28;20878;-48
2021/12/31 10:03:55;;;;;;;3.10;2.80;;;16.80;98.40;;;;;;5094871;27;20482;-48
2021/12/31 10:06:23;;;;;;;3.73;3.00;;;16.70;98.10;;;;;;5071176;27;20563;-48
2021/12/31 10:08:50;;;;;;;7.20;3.60;;;16.50;98.30;;;;;;5067240;28;20491;-47
2021/12/31 10:11:18;;;;;;;3.23;2.97;;;16.30;98.20;;;;;;5073594;27;20995;-49
2021/12/31 10:13:53;;;;;;;4.00;3.60;;;16.00;98.50;;;;;;5092917;27;20735;-48
2021/12/31 10:16:21;;;;;;;4.70;3.63;;;15.80;99.00;;;;;;5065162;28;20487;-48
2021/12/31 10:18:49;;;;;;;3.57;3.27;;;15.70;99.50;;;;;;5074015;27;20999;-47
2021/12/31 10:21:19;;;;;;;3.33;2.93;;;15.40;99.00;;;;;;5068298;27;21141;-46
2021/12/31 10:23:48;;;;;;;4.43;3.23;;;15.00;98.80;;;;;;5079969;27;20492;-47
2021/12/31 10:26:18;;;;;;;3.63;2.97;;;14.60;99.40;;;;;;5072797;27;20865;-45
2021/12/31 10:28:56;;;;;;;3.93;2.90;;;14.20;99.60;;;;;;5070775;27;20590;-45
2021/12/31 10:31:22;;;;;;;4.63;3.13;;;13.80;99.80;;;;;;5085462;27;20488;-45
2021/12/31 10:33:50;;;;;;;3.43;2.40;;;13.50;99.90;;;;;;5059880;28;20485;-45
2021/12/31 10:36:34;;;;;;;11.63;3.30;;;13.30;99.90;;;;;;5053348;28;20554;-46
2021/12/31 10:39:15;;;;;;;3.20;2.27;;;13.20;99.90;;;;;;5086752;27;20481;-44
2021/12/31 10:41:42;;;;;;;3.87;2.80;;;13.00;99.90;;;;;;5065310;28;20950;-46
2021/12/31 10:44:09;;;;;;;3.80;2.70;;;12.80;99.90;;;;;;5062072;28;20534;-45
2021/12/31 10:46:35;;;;;;;3.70;2.73;;;12.60;99.90;;;;;;5064027;28;20477;-45
2021/12/31 10:49:07;;;;;;;3.83;3.50;;;12.50;99.90;;;;;;5066802;28;20695;-45
2021/12/31 10:51:39;;;;;;;3.50;3.20;;;12.40;99.90;;;;;;5059538;28;20516;-45
2021/12/31 10:54:32;;;;;;;3.77;3.47;;;12.20;99.90;;;;;;5068815;28;20477;-45
2021/12/31 10:57:00;;;;;;;5.53;3.30;;;12.10;99.90;;;;;;5062967;28;20483;-45
2021/12/31 10:59:33;;;;;;;4.40;3.27;;;12.00;99.90;;;;;;5066057;28;20537;-45
2021/12/31 11:02:00;;;;;;;4.97;3.60;;;11.90;99.90;;;;;;5062050;28;20485;-46
2021/12/31 11:04:29;;;;;;;5.07;3.90;;;11.70;99.90;;;;;;5059763;27;20555;-45
2021/12/31 11:06:56;;;;;;;7.43;5.43;;;11.50;99.90;;;;;;5077394;28;20484;-47
2021/12/31 11:09:25;;;;;;;7.50;5.97;;;11.20;99.90;;;;;;5065399;28;20549;-45
2021/12/31 11:11:53;;;;;;;6.07;5.30;;;11.10;99.90;;;;;;5059075;27;20477;-45
2021/12/31 11:14:20;;;;;;;7.50;4.77;;;11.10;99.90;;;;;;5083728;27;20477;-46
2021/12/31 11:16:46;;;;;;;7.63;6.20;;;11.10;99.90;;;;;;5065258;28;20483;-45
2021/12/31 11:19:13;;;;;;;10.10;5.63;;;11.10;99.90;;;;;;5062231;28;20553;-45
2021/12/31 11:21:40;;;;;;;7.23;5.40;;;11.20;99.90;;;;;;5056939;28;20483;-45
2021/12/31 11:24:36;;;;;;;7.80;5.10;;;11.30;99.90;;;;;;5069197;28;20485;-45
2021/12/31 11:27:31;;;;;;;7.50;5.60;;;11.40;99.90;;;;;;5057956;27;20485;-45
2021/12/31 11:29:59;;;;;;;10.50;6.03;;;11.40;99.90;;;;;;5079508;27;20652;-45
2021/12/31 11:32:58;;;;;;;8.80;6.40;;;11.40;99.90;;;;;;5086906;27;20959;-45
2021/12/31 11:35:30;;;;;;;8.97;5.03;;;11.40;99.90;;;;;;5063092;28;20632;-45
2021/12/31 11:37:57;;;;;;;10.33;6.00;;;11.50;99.90;;;;;;5063149;28;20481;-45
2021/12/31 11:40:30;;;;;;;7.40;5.10;;;11.50;99.90;;;;;;5067252;28;20566;-45
2021/12/31 11:43:26;;;;;;;9.03;5.30;;;11.50;99.90;;;;;;5060747;28;20478;-45
2021/12/31 11:46:32;;;;;;;13.40;5.90;;;11.60;99.90;;;;;;5062255;28;20485;-46
2021/12/31 11:48:59;;;;;;;13.80;5.90;;;11.50;99.90;;;;;;5049923;28;20972;-46
2021/12/31 11:51:28;;;;;;;10.90;6.00;;;11.60;99.90;;;;;;5057328;28;20487;-46
2021/12/31 11:54:20;;;;;;;7.83;5.80;;;11.60;99.90;;;;;;5064532;28;20570;-45
2021/12/31 11:56:57;;;;;;;10.80;6.07;;;11.60;99.90;;;;;;5050919;28;20479;-46
2021/12/31 11:59:51;;;;;;;6.63;4.30;;;11.60;99.90;;;;;;5069209;28;20531;-45
2021/12/31 12:02:21;;;;;;;5.93;4.70;;;11.60;99.90;;;;;;5058271;28;21091;-46
2021/12/31 12:05:08;;;;;;;7.07;5.53;;;11.60;99.90;;;;;;5059047;28;20475;-46
2021/12/31 12:07:37;;;;;;;4.77;3.67;;;11.70;99.90;;;;;;5061682;28;20891;-45
2021/12/31 12:10:21;;;;;;;10.83;5.70;;;11.70;99.90;;;;;;5064446;28;20484;-45
2021/12/31 12:12:53;;;;;;;13.30;6.87;;;11.70;99.90;;;;;;5064979;28;20521;-46
2021/12/31 12:15:33;;;;;;;6.53;5.70;;;11.70;99.90;;;;;;5069487;27;20932;-46
2021/12/31 12:18:02;;;;;;;11.17;6.93;;;11.80;99.90;;;;;;5080796;27;20541;-46
2021/12/31 12:20:34;;;;;;;13.43;7.80;;;11.70;99.90;;;;;;5061327;28;20499;-46
2021/12/31 12:23:28;;;;;;;9.53;6.77;;;11.60;99.90;;;;;;5065468;27;20475;-45
2021/12/31 12:25:55;;;;;;;9.60;6.47;;;11.60;99.90;;;;;;5045612;27;21107;-47
2021/12/31 12:28:23;;;;;;;11.90;7.20;;;11.80;99.90;;;;;;5077640;28;20492;-46
2021/12/31 12:31:04;;;;;;;7.53;6.13;;;11.90;99.90;;;;;;5064896;28;20478;-45
2021/12/31 12:33:31;;;;;;;8.97;6.90;;;11.90;99.90;;;;;;5054076;28;20480;-45
2021/12/31 12:36:00;;;;;;;8.80;6.83;;;12.00;99.90;;;;;;5060581;28;20477;-46
2021/12/31 12:38:29;;;;;;;11.07;7.50;;;12.10;99.90;;;;;;5062104;28;20638;-45
2021/12/31 12:40:58;;;;;;;13.77;10.17;;;12.00;99.90;;;;;;5062724;28;20565;-46
2021/12/31 12:43:27;;;;;;;13.80;8.73;;;12.00;99.90;;;;;;5063479;27;20481;-46
2021/12/31 12:45:55;;;;;;;15.97;11.70;;;12.00;99.90;;;;;;5085658;27;20480;-47
2021/12/31 12:48:33;;;;;;;19.93;10.30;;;12.00;99.90;;;;;;5062198;28;20897;-45
2021/12/31 12:51:00;;;;;;;15.57;9.80;;;12.10;99.90;;;;;;5051556;27;20467;-46